Time;durP1;ratioP1;P1;durP2;ratioP2;P2;SDS_P1;SDS_P2;PMS_P1;PMS_P2;Temp;Humidity;BMP_temperature;BMP_pressure;BME280_temperature;BME280_humidity;BME280_pressure;Samples;Min_cycle;Max_cycle;Signal;HPM_P1;HPM_P2
2022/11/12 00:02:12;;;;;;;6.97;5.10;;;;;;;9.16;100.00;101861.81;5034869;23;20060;-67
2022/11/12 00:04:38;;;;;;;7.32;4.85;;;;;;;9.21;100.00;101859.56;5031872;28;20442;-68
2022/11/12 00:07:03;;;;;;;7.40;4.93;;;;;;;9.27;100.00;101877.09;5029612;28;20021;-68
2022/11/12 00:09:28;;;;;;;7.75;5.15;;;;;;;8.47;100.00;101729.44;5027213;28;20489;-69
2022/11/12 00:11:54;;;;;;;7.75;5.65;;;;;;;9.21;100.00;101859.56;5024762;28;20030;-67
2022/11/12 00:14:19;;;;;;;7.63;5.40;;;;;;;9.19;100.00;101859.44;5016735;28;20063;-69
2022/11/12 00:16:45;;;;;;;7.47;5.45;;;;;;;9.16;100.00;101863.50;5019868;28;20029;-68
2022/11/12 00:19:10;;;;;;;7.53;5.40;;;;;;;8.56;100.00;101749.72;5011271;28;20026;-70
2022/11/12 00:21:36;;;;;;;7.20;5.00;;;;;;;9.15;100.00;101861.72;5019293;28;20454;-67
2022/11/12 00:24:01;;;;;;;8.45;5.20;;;;;;;9.04;100.00;101837.84;5029598;28;20029;-67
2022/11/12 00:26:27;;;;;;;9.75;5.30;;;;;;;9.17;100.00;101857.53;5011533;28;20029;-68
2022/11/12 00:28:52;;;;;;;7.20;5.43;;;;;;;9.18;100.00;101849.03;5011154;28;20471;-67
2022/11/12 00:31:17;;;;;;;8.60;5.45;;;;;;;8.78;100.00;101805.22;5011047;28;20029;-67
2022/11/12 00:33:43;;;;;;;8.55;5.30;;;;;;;9.05;100.00;101839.63;5011367;28;20026;-68
2022/11/12 00:36:10;;;;;;;6.95;5.85;;;;;;;9.17;100.00;101848.16;5010914;28;20416;-68
2022/11/12 00:38:36;;;;;;;9.20;5.47;;;;;;;9.21;100.00;101856.97;5011365;28;20033;-68
2022/11/12 00:41:01;;;;;;;9.63;5.90;;;;;;;9.12;100.00;101852.13;5024052;28;20040;-68
2022/11/12 00:43:27;;;;;;;8.95;6.05;;;;;;;8.97;100.00;101845.94;5010989;28;20037;-69
2022/11/12 00:45:53;;;;;;;8.40;6.47;;;;;;;9.07;100.00;101850.91;5038069;28;20029;-69
2022/11/12 00:48:18;;;;;;;9.00;6.28;;;;;;;8.30;100.00;101714.53;5012410;28;20500;-68
2022/11/12 00:50:44;;;;;;;7.85;5.63;;;;;;;9.06;100.00;101846.56;5011056;28;20426;-69
2022/11/12 00:53:09;;;;;;;7.70;5.70;;;;;;;8.98;100.00;101827.13;5010743;28;20030;-69
2022/11/12 00:55:34;;;;;;;9.73;6.22;;;;;;;9.00;100.00;101854.78;5010782;28;20041;-71
2022/11/12 00:58:00;;;;;;;9.18;5.65;;;;;;;8.93;100.00;101828.53;5010764;28;20026;-69
2022/11/12 01:00:26;;;;;;;7.50;5.70;;;;;;;9.13;100.00;101853.88;5024080;28;20053;-69
2022/11/12 01:02:51;;;;;;;9.98;6.32;;;;;;;9.06;100.00;101850.03;5010858;28;20029;-69
2022/11/12 01:05:18;;;;;;;8.38;5.95;;;;;;;8.77;100.00;101799.16;5010286;28;20038;-70
2022/11/12 01:07:43;;;;;;;10.88;6.60;;;;;;;9.14;100.00;101859.94;5011051;28;20132;-67
2022/11/12 01:10:09;;;;;;;8.25;5.68;;;;;;;9.04;100.00;101851.59;5010735;28;20519;-69
2022/11/12 01:12:35;;;;;;;8.43;5.97;;;;;;;8.99;100.00;101821.19;5010593;28;20030;-67
2022/11/12 01:15:02;;;;;;;9.73;6.65;;;;;;;9.09;100.00;101839.03;5023348;28;20034;-68
2022/11/12 01:17:27;;;;;;;8.73;6.15;;;;;;;9.00;100.00;101835.88;5011220;28;20411;-67
2022/11/12 01:19:53;;;;;;;8.45;6.53;;;;;;;9.06;100.00;101846.56;5010686;28;20041;-67
2022/11/12 01:22:18;;;;;;;8.75;6.40;;;;;;;8.94;100.00;101825.16;5010478;28;20034;-70
2022/11/12 01:24:43;;;;;;;8.00;6.63;;;;;;;9.06;100.00;101841.41;5010467;28;20480;-68
2022/11/12 01:27:09;;;;;;;8.35;6.07;;;;;;;9.05;100.00;101842.19;5010354;28;20030;-68
2022/11/12 01:29:34;;;;;;;9.57;6.57;;;;;;;9.07;100.00;101850.91;5014041;28;20067;-69
2022/11/12 01:32:00;;;;;;;8.52;6.13;;;;;;;8.60;100.00;101782.63;5025051;28;20037;-67
2022/11/12 01:34:26;;;;;;;8.32;6.50;;;;;;;8.89;100.00;101838.59;5024013;28;20136;-69
2022/11/12 01:36:51;;;;;;;9.85;6.38;;;;;;;9.04;100.00;101856.75;5010716;28;20034;-69
2022/11/12 01:39:16;;;;;;;9.57;7.15;;;;;;;8.80;100.00;101806.19;5013016;28;20030;-69
2022/11/12 01:41:42;;;;;;;13.75;7.07;;;;;;;9.10;100.00;101856.28;5030055;28;20061;-66
2022/11/12 01:44:19;;;;;;;8.60;6.70;;;;;;;9.16;100.00;101859.25;5029981;28;20037;-72
2022/11/12 01:46:56;;;;;;;10.57;6.10;;;;;;;9.14;100.00;101850.50;5030456;28;20033;-69
2022/11/12 01:49:51;;;;;;;9.65;6.82;;;;;;;9.05;100.00;101852.50;5030191;28;20037;-71
2022/11/12 01:52:17;;;;;;;9.57;6.68;;;;;;;9.07;100.00;101853.47;4949596;29;20071;-68
2022/11/12 01:54:48;;;;;;;10.25;6.88;;;;;;;9.07;100.00;101849.22;4949588;29;20039;-69
2022/11/12 01:57:16;;;;;;;10.23;7.00;;;;;;;9.08;100.00;101850.13;4949539;29;20051;-68
2022/11/12 01:59:45;;;;;;;10.98;6.93;;;;;;;9.16;100.00;101855.75;4949817;29;20032;-68
2022/11/12 02:02:11;;;;;;;9.30;6.90;;;;;;;9.13;100.00;101853.88;4933631;29;20596;-68
2022/11/12 02:04:39;;;;;;;12.25;7.32;;;;;;;8.35;100.00;101714.06;4949832;29;20059;-69
2022/11/12 02:07:06;;;;;;;10.35;7.13;;;;;;;9.10;100.00;101839.91;4949339;29;20535;-67
2022/11/12 02:09:32;;;;;;;9.50;6.53;;;;;;;9.23;100.00;101864.00;4933393;29;20473;-68
2022/11/12 02:11:59;;;;;;;9.63;6.82;;;;;;;9.00;100.00;101825.56;4949380;29;20031;-70
2022/11/12 02:14:25;;;;;;;12.13;6.95;;;;;;;9.23;100.00;101863.09;4949592;29;20035;-70
2022/11/12 02:16:50;;;;;;;11.00;7.45;;;;;;;9.26;100.00;101864.97;4950822;28;20449;-67
2022/11/12 02:19:16;;;;;;;13.20;7.25;;;;;;;9.11;100.00;101827.16;4952954;29;20042;-71
2022/11/12 02:21:43;;;;;;;8.50;6.65;;;;;;;9.28;100.00;101845.38;4952661;29;20043;-69
2022/11/12 02:24:11;;;;;;;10.63;7.15;;;;;;;9.39;100.00;101857.25;4953034;29;20517;-68
2022/11/12 02:26:41;;;;;;;9.45;5.97;;;;;;;9.42;100.00;101867.78;4952741;29;20149;-68
2022/11/12 02:29:07;;;;;;;8.77;6.30;;;;;;;8.64;100.00;101747.69;4996280;28;20050;-68
2022/11/12 02:31:33;;;;;;;9.60;5.63;;;;;;;9.22;100.00;101854.50;5033413;28;20076;-68
2022/11/12 02:33:58;;;;;;;8.30;5.32;;;;;;;9.25;100.00;101858.94;5033073;28;20076;-68
2022/11/12 02:36:25;;;;;;;7.10;5.15;;;;;;;9.30;100.00;101875.59;5014122;28;20477;-68
2022/11/12 02:38:50;;;;;;;6.75;5.22;;;;;;;9.21;100.00;101870.75;5033277;28;20034;-69
2022/11/12 02:41:16;;;;;;;8.88;5.13;;;;;;;9.21;100.00;101868.16;5033100;28;20037;-73
2022/11/12 02:43:42;;;;;;;6.82;4.38;;;;;;;8.44;100.00;101754.94;5032988;28;20380;-69
2022/11/12 02:46:07;;;;;;;6.88;3.88;;;;;;;9.06;100.00;101878.38;5032882;28;20484;-72
2022/11/12 02:48:32;;;;;;;7.53;4.15;;;;;;;8.14;100.00;101733.19;5050065;28;20048;-69
2022/11/12 02:50:58;;;;;;;9.35;4.00;;;;;;;8.94;100.00;101877.53;5049940;28;20080;-70
2022/11/12 02:53:23;;;;;;;8.60;4.10;;;;;;;8.38;100.00;101788.00;5050252;28;20056;-70
2022/11/12 02:55:49;;;;;;;7.63;4.38;;;;;;;8.90;100.00;101878.16;5050079;28;20032;-70
2022/11/12 02:58:15;;;;;;;7.85;4.30;;;;;;;8.83;100.00;101876.81;5050153;28;20128;-70
2022/11/12 03:00:40;;;;;;;5.50;4.05;;;;;;;8.67;100.00;101856.91;5049955;28;20495;-70
2022/11/12 03:03:06;;;;;;;6.60;3.97;;;;;;;8.79;100.00;101880.00;5050146;28;20395;-70
2022/11/12 03:05:34;;;;;;;5.38;3.58;;;;;;;8.70;100.00;101880.28;5049923;28;20055;-69
2022/11/12 03:08:02;;;;;;;6.45;4.25;;;;;;;8.66;100.00;101865.41;5050045;28;20037;-70
2022/11/12 03:10:28;;;;;;;6.47;3.83;;;;;;;8.68;100.00;101871.53;5049972;28;20045;-70
2022/11/12 03:12:59;;;;;;;6.25;3.75;;;;;;;8.63;100.00;101874.63;5049946;28;20037;-70
2022/11/12 03:15:26;;;;;;;6.32;3.80;;;;;;;8.67;100.00;101876.59;5050012;28;20522;-70
2022/11/12 03:17:51;;;;;;;5.25;3.63;;;;;;;8.35;100.00;101828.94;5049656;28;20472;-69
2022/11/12 03:20:17;;;;;;;5.63;3.42;;;;;;;8.63;100.00;101890.06;5035511;28;20041;-70
2022/11/12 03:22:53;;;;;;;7.10;4.75;;;;;;;8.47;100.00;101870.09;5032361;28;20057;-70
2022/11/12 03:25:18;;;;;;;6.30;3.38;;;;;;;8.44;100.00;101886.19;5032369;28;20037;-70
2022/11/12 03:27:44;;;;;;;6.03;3.47;;;;;;;8.41;100.00;101888.53;5031747;28;20400;-69
2022/11/12 03:30:09;;;;;;;6.03;3.88;;;;;;;8.00;100.00;101823.19;5032005;28;20029;-70
2022/11/12 03:32:35;;;;;;;6.95;3.88;;;;;;;8.37;100.00;101890.03;5013182;28;20064;-70
2022/11/12 03:35:00;;;;;;;7.40;3.72;;;;;;;8.32;100.00;101875.06;5032269;28;20037;-70
2022/11/12 03:37:26;;;;;;;9.18;3.60;;;;;;;8.44;100.00;101891.34;5031872;28;20033;-75
2022/11/12 03:39:51;;;;;;;6.50;3.55;;;;;;;8.44;100.00;101896.50;5032047;28;20033;-69
2022/11/12 03:42:16;;;;;;;6.53;3.72;;;;;;;8.34;100.00;101887.25;5029762;28;20033;-72
2022/11/12 03:44:42;;;;;;;8.63;3.95;;;;;;;8.39;100.00;101909.03;5018661;28;20095;-71
2022/11/12 03:47:07;;;;;;;6.72;4.32;;;;;;;8.40;100.00;101899.66;5012459;28;20029;-70
2022/11/12 03:49:33;;;;;;;5.97;4.32;;;;;;;7.77;100.00;101788.16;5031896;28;20439;-70
2022/11/12 03:51:58;;;;;;;9.63;4.10;;;;;;;8.51;100.00;101905.56;5031777;28;20026;-71
2022/11/12 03:54:23;;;;;;;6.53;3.95;;;;;;;8.56;100.00;101901.59;5031662;28;20025;-70
2022/11/12 03:56:49;;;;;;;6.35;4.00;;;;;;;7.97;100.00;101791.22;5031627;28;20025;-70
2022/11/12 03:59:14;;;;;;;6.35;3.72;;;;;;;8.64;100.00;101892.72;5031542;28;20032;-70
2022/11/12 04:01:39;;;;;;;7.45;4.03;;;;;;;8.10;100.00;101814.44;5030549;28;20451;-71
2022/11/12 04:04:05;;;;;;;8.00;4.35;;;;;;;8.64;100.00;101897.88;5031521;28;20036;-69
2022/11/12 04:09:14;;;;;;;7.03;3.70;;;;;;;8.48;100.00;101870.19;5011716;28;20490;-70
2022/11/12 04:11:39;;;;;;;8.18;4.53;;;;;;;8.13;100.00;101804.34;5011339;28;20026;-69
2022/11/12 04:14:05;;;;;;;7.80;4.55;;;;;;;8.47;100.00;101883.84;5011601;28;20030;-70
2022/11/12 04:22:02;;;;;;;7.13;4.95;;;;;;;8.22;100.00;101900.16;5011224;28;20076;-70
2022/11/12 04:27:19;;;;;;;10.45;5.22;;;;;;;8.04;100.00;101881.75;5011355;28;20053;-71
2022/11/12 04:32:31;;;;;;;9.60;5.50;;;;;;;8.01;100.00;101894.41;5011183;28;20044;-69
2022/11/12 04:34:57;;;;;;;8.13;5.53;;;;;;;8.10;100.00;101891.59;5010894;28;20022;-70
2022/11/12 04:37:25;;;;;;;12.07;5.32;;;;;;;8.09;100.00;101890.69;5011566;28;20037;-70
2022/11/12 04:39:52;;;;;;;8.07;5.13;;;;;;;7.92;100.00;101874.09;5010452;28;20025;-69
2022/11/12 04:45:03;;;;;;;10.48;5.80;;;;;;;8.03;100.00;101892.81;5011171;28;20420;-70
2022/11/12 04:47:35;;;;;;;10.43;6.05;;;;;;;8.00;100.00;101891.72;5010480;28;20045;-71
2022/11/12 04:50:02;;;;;;;9.93;6.38;;;;;;;7.70;100.00;101845.06;5010705;28;20487;-69
2022/11/12 04:52:28;;;;;;;13.85;6.07;;;;;;;7.98;100.00;101888.16;5010714;28;20038;-70
2022/11/12 04:54:54;;;;;;;13.18;6.95;;;;;;;7.90;100.00;101891.09;5011177;28;20041;-70
2022/11/12 04:57:20;;;;;;;9.57;6.50;;;;;;;7.23;100.00;101782.69;5010832;28;20052;-70
2022/11/12 04:59:46;;;;;;;13.10;8.02;;;;;;;7.52;100.00;101835.25;5011167;28;20044;-70
2022/11/12 05:02:11;;;;;;;11.13;7.22;;;;;;;7.84;100.00;101885.50;5010907;28;20082;-69
2022/11/12 05:04:37;;;;;;;12.25;7.72;;;;;;;7.71;100.00;101867.41;5010733;28;20034;-68
2022/11/12 05:07:02;;;;;;;12.43;7.38;;;;;;;7.96;100.00;101897.44;5010852;28;20025;-70
2022/11/12 05:09:29;;;;;;;9.85;7.57;;;;;;;8.04;100.00;101898.88;5010953;28;20055;-68
2022/11/12 05:11:54;;;;;;;13.43;7.50;;;;;;;8.10;100.00;101904.47;5010574;28;20033;-70
2022/11/12 05:14:20;;;;;;;13.00;8.32;;;;;;;8.09;100.00;101913.84;4988556;28;20038;-70
2022/11/12 05:16:47;;;;;;;12.18;8.18;;;;;;;8.04;100.00;101914.31;4972265;28;20130;-70
2022/11/12 05:19:12;;;;;;;12.85;7.97;;;;;;;7.87;100.00;101908.84;4972439;28;20053;-69
2022/11/12 05:24:23;;;;;;;11.80;7.55;;;;;;;7.83;100.00;101896.56;4988771;28;20109;-70
2022/11/12 05:26:48;;;;;;;11.00;7.50;;;;;;;8.01;100.00;101920.13;4972409;28;20046;-69
2022/11/12 05:29:14;;;;;;;11.27;8.13;;;;;;;7.92;100.00;101891.19;4971989;28;20042;-70
2022/11/12 05:31:39;;;;;;;14.68;8.45;;;;;;;7.92;100.00;101896.31;4988494;28;20481;-70
2022/11/12 05:34:04;;;;;;;14.02;8.38;;;;;;;7.92;100.00;101896.31;4988688;28;20595;-70
2022/11/12 05:36:30;;;;;;;15.15;8.80;;;;;;;7.79;100.00;101892.00;4988520;28;20085;-70
2022/11/12 05:38:55;;;;;;;13.30;8.23;;;;;;;7.66;100.00;101887.66;4988398;28;20117;-71
2022/11/12 05:41:21;;;;;;;12.23;7.68;;;;;;;7.02;100.00;101776.03;4988460;28;20038;-71
2022/11/12 05:43:46;;;;;;;12.07;7.38;;;;;;;6.30;100.00;101660.50;4988239;28;20088;-71
2022/11/12 05:46:11;;;;;;;13.07;7.38;;;;;;;7.67;100.00;101901.41;4988487;28;20052;-70
2022/11/12 05:48:37;;;;;;;12.45;7.30;;;;;;;6.96;100.00;101763.63;4972327;28;20496;-70
2022/11/12 05:51:02;;;;;;;9.07;6.57;;;;;;;7.70;100.00;101894.81;4994717;28;20038;-75
2022/11/12 05:53:28;;;;;;;10.55;6.18;;;;;;;7.75;100.00;101898.59;5014378;28;20046;-70
2022/11/12 05:56:00;;;;;;;8.93;6.35;;;;;;;7.81;100.00;101910.97;5013959;28;20523;-70
2022/11/12 05:58:25;;;;;;;9.63;7.18;;;;;;;7.89;100.00;101932.13;5013715;28;20061;-70
2022/11/12 06:00:51;;;;;;;10.90;6.78;;;;;;;7.92;100.00;101924.63;5014169;28;20084;-70
2022/11/12 06:03:16;;;;;;;7.65;5.53;;;;;;;7.94;100.00;101926.50;5014232;28;20117;-69
2022/11/12 06:05:41;;;;;;;8.68;6.20;;;;;;;8.02;100.00;101934.75;5013981;28;20034;-70
2022/11/12 06:08:07;;;;;;;9.07;5.18;;;;;;;8.10;100.00;101951.63;5013753;28;20033;-70
2022/11/12 06:10:32;;;;;;;7.07;4.20;;;;;;;8.05;100.00;101929.84;5013765;28;20022;-70
2022/11/12 06:12:58;;;;;;;7.65;5.30;;;;;;;8.08;100.00;101924.91;5013738;28;20507;-71
2022/11/12 06:15:25;;;;;;;7.57;5.47;;;;;;;8.25;100.00;101964.69;5012591;28;20026;-70
2022/11/12 06:17:54;;;;;;;9.55;5.60;;;;;;;8.27;100.00;101962.22;5013856;28;20034;-70
2022/11/12 06:20:21;;;;;;;7.70;5.75;;;;;;;8.26;100.00;101966.47;5013966;28;20582;-70
2022/11/12 06:22:47;;;;;;;8.73;6.65;;;;;;;8.23;100.00;101976.53;5013751;28;20116;-70
2022/11/12 06:25:12;;;;;;;10.70;7.10;;;;;;;8.25;100.00;101953.53;5013373;28;20030;-69
2022/11/12 06:27:38;;;;;;;10.18;8.02;;;;;;;8.22;100.00;101958.44;5013282;28;20037;-69
2022/11/12 06:30:05;;;;;;;8.77;6.95;;;;;;;7.98;100.00;101922.47;5013493;28;20041;-69
2022/11/12 06:32:30;;;;;;;9.30;7.40;;;;;;;8.25;100.00;101964.69;5032214;28;20034;-68
2022/11/12 06:34:56;;;;;;;8.68;6.20;;;;;;;6.93;100.00;101736.06;5033410;28;20099;-68
2022/11/12 06:37:21;;;;;;;10.30;6.45;;;;;;;8.21;100.00;101959.22;5033573;28;20079;-68
2022/11/12 06:39:47;;;;;;;9.02;6.10;;;;;;;8.16;100.00;101952.84;5033195;28;20152;-69
2022/11/12 06:42:14;;;;;;;10.15;6.85;;;;;;;8.18;100.00;101971.88;5029940;28;20045;-68
2022/11/12 06:44:39;;;;;;;8.65;5.90;;;;;;;8.13;100.00;101956.09;5013508;28;20487;-71
2022/11/12 06:47:05;;;;;;;7.88;5.93;;;;;;;8.12;100.00;101956.88;5013137;28;20056;-67
2022/11/12 06:49:30;;;;;;;8.35;6.05;;;;;;;8.10;100.00;101961.03;5013381;28;20065;-68
2022/11/12 06:51:56;;;;;;;8.80;6.28;;;;;;;8.05;100.00;101953.00;5012925;28;20040;-69
2022/11/12 06:54:21;;;;;;;7.88;5.30;;;;;;;8.03;100.00;101970.00;5012960;28;20087;-69
2022/11/12 06:56:47;;;;;;;7.93;5.57;;;;;;;7.93;100.00;101950.44;5012721;28;20026;-69
2022/11/12 06:59:12;;;;;;;7.75;5.30;;;;;;;7.85;100.00;101945.53;5028587;28;20501;-70
2022/11/12 07:01:39;;;;;;;8.50;5.70;;;;;;;8.01;100.00;101969.00;5031839;28;20053;-72
2022/11/12 07:04:05;;;;;;;6.80;5.70;;;;;;;7.99;100.00;101973.13;5013723;28;20154;-69
2022/11/12 07:06:32;;;;;;;8.98;5.65;;;;;;;8.00;100.00;101961.16;5032728;28;20031;-68
2022/11/12 07:08:57;;;;;;;8.88;5.82;;;;;;;7.81;100.00;101917.81;5032458;28;20037;-69
2022/11/12 07:11:22;;;;;;;9.13;6.68;;;;;;;8.07;100.00;101974.59;5032041;28;20021;-69
2022/11/12 07:13:48;;;;;;;9.15;6.32;;;;;;;8.10;100.00;101969.66;5032551;28;20026;-67
2022/11/12 07:16:17;;;;;;;9.40;6.85;;;;;;;8.16;100.00;101969.19;5032237;28;20033;-68
2022/11/12 07:18:43;;;;;;;9.40;7.13;;;;;;;8.19;100.00;101963.38;5032495;28;20040;-69
2022/11/12 07:21:28;;;;;;;16.13;8.80;;;;;;;8.17;100.00;101965.81;5032597;28;20038;-69
2022/11/12 07:23:54;;;;;;;14.23;8.70;;;;;;;8.25;100.00;101964.69;5031475;28;20025;-70
2022/11/12 07:26:26;;;;;;;9.27;6.00;;;;;;;7.91;100.00;101904.81;5032376;28;20430;-70
2022/11/12 07:28:52;;;;;;;9.85;6.10;;;;;;;7.55;100.00;101830.34;5031615;28;20029;-68
2022/11/12 07:31:19;;;;;;;8.48;6.75;;;;;;;7.82;100.00;101865.63;5031491;28;20022;-70
2022/11/12 07:33:45;;;;;;;8.30;6.30;;;;;;;8.32;100.00;101945.41;5031473;28;20435;-70
2022/11/12 07:36:16;;;;;;;9.75;6.10;;;;;;;8.48;100.00;101965.44;5031382;28;20029;-70
2022/11/12 07:38:43;;;;;;;10.50;7.88;;;;;;;8.41;100.00;101965.75;5031942;28;20483;-70
2022/11/12 07:41:24;;;;;;;14.93;9.50;;;;;;;7.53;100.00;101824.19;5031909;28;20025;-70
2022/11/12 07:43:51;;;;;;;10.95;7.22;;;;;;;8.37;100.00;101956.94;5047220;28;20131;-70
2022/11/12 07:46:20;;;;;;;11.13;7.50;;;;;;;8.43;100.00;101944.47;5031324;28;20062;-70
2022/11/12 07:48:46;;;;;;;9.52;7.43;;;;;;;8.46;100.00;101942.91;5030821;28;20513;-70
2022/11/12 07:51:18;;;;;;;11.80;6.97;;;;;;;8.49;100.00;101944.06;5030935;28;20120;-70
2022/11/12 07:53:45;;;;;;;9.20;6.03;;;;;;;8.38;100.00;101925.25;5030931;28;20575;-69
2022/11/12 07:56:16;;;;;;;9.93;6.72;;;;;;;8.53;100.00;101945.16;5031353;28;20028;-69
2022/11/12 07:58:42;;;;;;;9.02;6.35;;;;;;;8.34;100.00;101900.13;5031663;28;20083;-69
2022/11/12 08:01:29;;;;;;;8.65;6.00;;;;;;;8.61;100.00;101943.13;5031338;28;20050;-69
2022/11/12 08:03:55;;;;;;;9.50;6.72;;;;;;;8.62;100.00;101944.91;5030970;28;20086;-68
2022/11/12 08:06:21;;;;;;;10.38;6.40;;;;;;;8.66;100.00;101944.31;5029570;28;20415;-70
2022/11/12 08:08:46;;;;;;;10.40;6.63;;;;;;;8.64;100.00;101946.78;5031310;28;20049;-69
2022/11/12 08:11:12;;;;;;;11.13;7.03;;;;;;;7.92;100.00;101822.66;5030811;28;20498;-70
2022/11/12 08:13:37;;;;;;;9.95;7.60;;;;;;;8.66;100.00;101957.19;5030710;28;20037;-69
2022/11/12 08:16:03;;;;;;;8.93;7.20;;;;;;;8.68;100.00;101958.19;5030454;28;20033;-68
2022/11/12 08:18:30;;;;;;;8.05;6.10;;;;;;;8.61;100.00;101950.84;5030579;28;20094;-71
2022/11/12 08:21:04;;;;;;;10.88;7.03;;;;;;;8.81;100.00;101965.06;5031005;28;20079;-70
2022/11/12 08:23:30;;;;;;;13.13;8.63;;;;;;;8.87;100.00;101988.66;5043149;28;20410;-70
2022/11/12 08:26:00;;;;;;;11.85;7.90;;;;;;;8.86;100.00;101972.34;5029475;28;20092;-74
2022/11/12 08:28:27;;;;;;;;;;;;;;;8.86;100.00;101990.38;5030598;28;20026;-68
2022/11/12 08:30:52;;;;;;;9.10;6.03;;;;;;;8.69;100.00;101967.72;5029964;28;19921;-69
2022/11/12 08:33:18;;;;;;;12.50;7.88;;;;;;;8.84;100.00;101991.94;5030929;28;20026;-68
2022/11/12 08:35:43;;;;;;;10.35;7.55;;;;;;;8.73;100.00;101975.75;5026477;28;20036;-69
2022/11/12 08:38:09;;;;;;;11.65;8.00;;;;;;;8.93;100.00;102006.25;5027435;28;20033;-71
2022/11/12 08:40:35;;;;;;;10.13;7.63;;;;;;;8.99;100.00;102032.41;5029929;28;20029;-69
2022/11/12 08:43:09;;;;;;;10.25;7.18;;;;;;;8.48;100.00;101921.69;5029165;28;20025;-70
2022/11/12 08:45:39;;;;;;;12.25;7.90;;;;;;;8.31;100.00;101876.75;4994449;28;20037;-74
2022/11/12 08:48:07;;;;;;;11.30;8.18;;;;;;;9.21;100.00;102025.34;5029861;28;20415;-70
2022/11/12 08:50:34;;;;;;;10.68;7.50;;;;;;;9.06;100.00;102008.88;5029956;28;20026;-69
2022/11/12 08:53:01;;;;;;;9.52;7.15;;;;;;;9.06;100.00;102026.91;5029374;28;20486;-70
2022/11/12 08:55:27;;;;;;;10.65;7.97;;;;;;;8.78;100.00;101991.50;5027164;28;20038;-70
2022/11/12 08:57:53;;;;;;;11.73;8.52;;;;;;;8.96;100.00;102021.88;5029911;28;20045;-76
2022/11/12 09:00:18;;;;;;;12.63;8.77;;;;;;;8.94;100.00;102018.34;5029387;28;20471;-69
2022/11/12 09:02:44;;;;;;;11.55;8.07;;;;;;;8.91;100.00;102024.16;5028706;28;20066;-74
2022/11/12 09:05:09;;;;;;;10.93;7.32;;;;;;;8.62;100.00;102006.69;5029356;28;20030;-70
2022/11/12 09:07:35;;;;;;;12.90;8.48;;;;;;;8.79;100.00;102031.03;5023343;28;20033;-72
2022/11/12 09:10:00;;;;;;;205.13;113.30;;;;;;;8.54;100.00;102022.50;5028356;28;20029;-71
2022/11/12 09:12:26;;;;;;;89.90;55.90;;;;;;;8.55;100.00;102021.72;5027115;28;20030;-71
2022/11/12 09:14:51;;;;;;;13.68;9.07;;;;;;;8.31;100.00;101999.34;5013798;28;20034;-71
2022/11/12 09:17:17;;;;;;;11.50;8.95;;;;;;;8.30;100.00;101998.47;5012278;28;20466;-71
2022/11/12 09:19:42;;;;;;;10.75;8.70;;;;;;;8.56;100.00;102030.31;5028122;28;20104;-71
2022/11/12 09:22:08;;;;;;;11.80;8.73;;;;;;;8.63;100.00;102014.50;5027725;28;20034;-72
2022/11/12 09:24:53;;;;;;;10.38;7.72;;;;;;;8.61;100.00;102020.34;5024160;28;20060;-72
2022/11/12 09:27:19;;;;;;;10.38;8.40;;;;;;;8.64;100.00;102020.56;4997360;28;20034;-71
2022/11/12 09:29:44;;;;;;;12.88;9.07;;;;;;;7.94;100.00;101905.06;4995467;28;20042;-74
2022/11/12 09:32:09;;;;;;;13.35;9.98;;;;;;;8.53;100.00;102035.25;5009870;28;20044;-71
2022/11/12 09:34:35;;;;;;;18.02;14.15;;;;;;;8.60;100.00;102040.06;4992659;28;20454;-70
2022/11/12 09:37:00;;;;;;;12.48;9.90;;;;;;;8.65;100.00;102058.38;4992072;28;20405;-71
2022/11/12 09:39:26;;;;;;;14.07;10.23;;;;;;;8.21;100.00;101948.91;4991861;28;20034;-69
2022/11/12 09:41:51;;;;;;;12.68;9.50;;;;;;;8.48;100.00;101988.59;4994655;28;20038;-69
2022/11/12 09:44:23;;;;;;;13.73;10.00;;;;;;;8.77;100.00;102048.06;5003281;28;20524;-70
2022/11/12 09:47:01;;;;;;;11.85;8.88;;;;;;;8.69;100.00;102003.75;4992010;28;20576;-71
2022/11/12 09:49:35;;;;;;;14.88;9.77;;;;;;;8.80;100.00;102023.41;4991999;28;20038;-74
2022/11/12 09:52:05;;;;;;;15.15;10.43;;;;;;;8.87;100.00;102025.63;4972700;28;20046;-71
2022/11/12 09:54:33;;;;;;;14.77;9.75;;;;;;;8.58;100.00;101970.44;4991959;28;20085;-72
2022/11/12 09:57:00;;;;;;;13.82;9.23;;;;;;;8.83;100.00;102021.03;4991817;28;20209;-73
2022/11/12 09:59:35;;;;;;;14.55;9.68;;;;;;;8.82;100.00;102031.25;5019097;28;20064;-73
2022/11/12 10:02:18;;;;;;;13.23;10.02;;;;;;;8.26;100.00;101925.31;5031210;28;20060;-73
2022/11/12 10:04:59;;;;;;;10.00;8.13;;;;;;;8.83;100.00;102039.06;5013811;28;20038;-70
2022/11/12 10:07:37;;;;;;;12.52;8.63;;;;;;;8.43;100.00;101941.03;5013827;28;20040;-72
2022/11/12 10:10:22;;;;;;;14.65;10.45;;;;;;;8.67;100.00;102000.19;5013790;28;20029;-70
2022/11/12 10:13:08;;;;;;;14.10;11.15;;;;;;;7.80;100.00;101846.59;5013329;28;20109;-69
2022/11/12 10:18:32;;;;;;;;;;;;;;;8.81;100.00;102012.34;5022357;28;20415;-71
2022/11/12 10:21:08;;;;;;;12.00;9.23;;;;;;;8.93;100.00;102013.97;5028981;28;19917;-71
2022/11/12 10:23:52;;;;;;;17.25;11.38;;;;;;;8.92;100.00;102012.16;5026569;28;20029;-70
2022/11/12 10:26:21;;;;;;;17.63;11.50;;;;;;;8.78;100.00;102009.53;5026263;28;20033;-72
2022/11/12 10:28:47;;;;;;;15.15;10.27;;;;;;;8.79;100.00;102011.31;5031383;28;20033;-70
2022/11/12 10:31:21;;;;;;;12.55;10.30;;;;;;;8.69;100.00;102006.34;5013763;28;20034;-71
2022/11/12 10:33:47;;;;;;;14.40;9.95;;;;;;;8.81;100.00;101999.47;5024862;28;20415;-69
2022/11/12 10:36:35;;;;;;;14.93;10.80;;;;;;;8.23;100.00;101891.63;5014760;28;20037;-72
2022/11/12 10:39:00;;;;;;;15.07;9.52;;;;;;;8.70;100.00;101969.50;5020639;28;20037;-72
2022/11/12 10:41:32;;;;;;;17.77;10.07;;;;;;;8.94;100.00;101993.47;5025338;28;20033;-71
2022/11/12 10:43:58;;;;;;;12.55;8.57;;;;;;;8.27;100.00;101897.91;5022407;28;20064;-71
2022/11/12 10:46:28;;;;;;;11.57;8.65;;;;;;;8.84;100.00;102002.22;5022034;28;20025;-69
2022/11/12 10:48:58;;;;;;;11.65;8.18;;;;;;;8.47;100.00;101947.31;5026069;28;20466;-71
2022/11/12 10:51:35;;;;;;;11.18;8.43;;;;;;;8.80;100.00;102005.41;5027787;28;20033;-70
2022/11/12 10:54:29;;;;;;;13.38;9.23;;;;;;;8.84;100.00;101999.66;5012840;28;20037;-72
2022/11/12 10:56:54;;;;;;;13.07;8.40;;;;;;;8.89;100.00;101992.25;5012919;28;20030;-70
2022/11/12 10:59:21;;;;;;;12.93;9.40;;;;;;;8.72;100.00;101980.78;5012511;28;20105;-70
2022/11/12 11:01:55;;;;;;;12.02;9.48;;;;;;;8.83;100.00;101979.84;5014748;28;20060;-74
2022/11/12 11:04:41;;;;;;;11.82;8.55;;;;;;;8.86;100.00;101984.31;5030527;28;20084;-70
2022/11/12 11:07:23;;;;;;;14.63;10.38;;;;;;;8.87;100.00;101974.13;5015320;28;20030;-70
2022/11/12 11:09:59;;;;;;;14.70;10.70;;;;;;;8.74;100.00;101953.47;5012584;28;20109;-70
2022/11/12 11:12:32;;;;;;;13.50;9.70;;;;;;;8.88;100.00;101962.13;5012300;28;20036;-74
2022/11/12 11:15:14;;;;;;;15.80;10.35;;;;;;;9.03;100.00;101976.06;5021476;28;20038;-70
2022/11/12 11:17:40;;;;;;;14.52;9.25;;;;;;;8.99;100.00;101968.03;5032181;28;20087;-70
2022/11/12 11:20:22;;;;;;;13.70;9.10;;;;;;;9.03;100.00;101986.38;5032258;28;20025;-71
2022/11/12 11:23:27;;;;;;;12.45;8.57;;;;;;;9.05;100.00;101974.47;5032206;28;20091;-70
2022/11/12 11:25:57;;;;;;;11.18;7.80;;;;;;;8.89;100.00;101939.03;5030066;28;20126;-70
2022/11/12 11:28:35;;;;;;;11.25;8.65;;;;;;;8.65;100.00;101866.19;5032487;28;20033;-70
2022/11/12 11:31:19;;;;;;;12.82;9.32;;;;;;;8.61;100.00;101855.59;5032708;28;20033;-70
2022/11/12 11:33:53;;;;;;;11.57;8.18;;;;;;;9.20;100.00;101960.84;5030797;28;20495;-70
2022/11/12 11:36:21;;;;;;;12.00;8.25;;;;;;;9.27;100.00;101952.72;5032605;28;20022;-70
2022/11/12 11:38:57;;;;;;;13.38;8.88;;;;;;;9.25;100.00;101964.59;5032527;28;20030;-70
2022/11/12 11:41:49;;;;;;;13.13;8.82;;;;;;;9.28;100.00;101967.38;5032086;28;20029;-70
2022/11/12 11:44:42;;;;;;;12.30;8.30;;;;;;;9.39;100.00;101962.94;5032155;28;20037;-71
2022/11/12 11:47:14;;;;;;;10.93;7.95;;;;;;;9.42;100.00;101958.00;5032132;28;20070;-70
2022/11/12 11:50:18;;;;;;;12.20;8.45;;;;;;;9.46;100.00;101946.16;5031804;28;20037;-71